createdAt,value
2018-10-06T00:01:36.811Z,3.90
2018-10-06T00:06:39.875Z,3.67
2018-10-06T00:11:42.955Z,3.70
2018-10-06T00:16:46.018Z,4.07
2018-10-06T00:21:49.121Z,4.10
2018-10-06T00:26:52.200Z,3.77
2018-10-06T00:31:55.272Z,4.20
2018-10-06T00:36:58.312Z,4.03
2018-10-06T00:42:01.374Z,4.30
2018-10-06T00:47:04.535Z,4.40
2018-10-06T00:52:07.661Z,4.17
2018-10-06T00:57:10.720Z,4.10
2018-10-06T01:02:14.120Z,3.70
2018-10-06T01:07:17.462Z,4.00
2018-10-06T01:12:21.935Z,3.73
2018-10-06T01:17:25.348Z,4.10
2018-10-06T01:22:28.767Z,3.70
2018-10-06T01:27:31.855Z,4.13
2018-10-06T01:32:34.917Z,4.27
2018-10-06T01:37:37.964Z,3.67
2018-10-06T01:42:41.020Z,4.37
2018-10-06T01:47:44.088Z,4.43
2018-10-06T01:52:47.141Z,4.47
2018-10-06T01:57:50.194Z,4.30
2018-10-06T02:02:53.235Z,4.13
2018-10-06T02:07:56.319Z,4.43
2018-10-06T02:12:59.355Z,5.43
2018-10-06T02:18:02.458Z,4.30
2018-10-06T02:23:05.739Z,4.50
2018-10-06T02:28:08.796Z,4.10
2018-10-06T02:33:11.886Z,3.67
2018-10-06T02:38:14.979Z,4.67
2018-10-06T02:43:18.052Z,5.00
2018-10-06T02:48:21.191Z,4.80
2018-10-06T02:53:24.271Z,4.77
2018-10-06T02:58:27.331Z,4.73
2018-10-06T03:03:30.416Z,4.80
2018-10-06T03:08:33.495Z,5.27
2018-10-06T03:13:36.818Z,4.90
2018-10-06T03:18:39.904Z,5.63
2018-10-06T03:23:42.958Z,5.67
2018-10-06T03:28:46.068Z,6.10
2018-10-06T03:33:49.144Z,6.23
2018-10-06T03:38:52.223Z,6.90
2018-10-06T03:43:55.315Z,7.37
2018-10-06T03:48:58.412Z,6.70
2018-10-06T04:02:01.612Z,7.27
2018-10-06T04:07:04.732Z,7.33
2018-10-06T04:12:07.858Z,6.60
2018-10-06T04:17:10.940Z,6.60
2018-10-06T04:22:14.034Z,6.40
2018-10-06T04:27:17.043Z,6.83
2018-10-06T04:32:20.136Z,6.53
2018-10-06T04:37:23.208Z,6.40
2018-10-06T04:42:26.479Z,6.83
2018-10-06T04:47:29.583Z,7.80
2018-10-06T04:52:32.654Z,7.83
2018-10-06T04:57:35.713Z,7.57
2018-10-06T05:02:38.911Z,7.10
2018-10-06T05:07:42.115Z,7.03
2018-10-06T05:12:45.223Z,7.40
2018-10-06T05:17:48.279Z,7.70
2018-10-06T05:22:51.684Z,8.60
2018-10-06T05:27:56.060Z,7.43
2018-10-06T05:33:00.263Z,8.30
2018-10-06T05:38:03.345Z,8.67
2018-10-06T05:43:06.518Z,7.80
2018-10-06T05:48:09.640Z,7.77
2018-10-06T05:53:12.696Z,8.00
2018-10-06T05:58:15.724Z,8.67
2018-10-06T06:03:18.795Z,8.80
2018-10-06T06:08:21.855Z,9.07
2018-10-06T06:13:24.903Z,8.93
2018-10-06T06:18:27.953Z,9.47
2018-10-06T06:23:31.016Z,10.00
2018-10-06T06:28:34.123Z,9.53
2018-10-06T06:33:37.198Z,9.43
2018-10-06T06:38:40.236Z,9.30
2018-10-06T06:43:43.360Z,10.13
2018-10-06T06:48:46.448Z,10.20
2018-10-06T06:53:49.488Z,10.13
2018-10-06T06:58:52.651Z,9.93
2018-10-06T07:03:55.699Z,10.17
2018-10-06T07:08:58.719Z,9.63
2018-10-06T07:14:01.751Z,9.40
2018-10-06T07:19:04.953Z,10.47
2018-10-06T07:24:08.001Z,11.20
2018-10-06T07:29:11.076Z,11.10
2018-10-06T07:34:14.123Z,11.17
2018-10-06T07:39:17.169Z,10.93
2018-10-06T07:44:20.214Z,10.10
2018-10-06T07:49:23.319Z,10.90
2018-10-06T07:54:26.356Z,10.67
2018-10-06T07:59:29.467Z,11.03
2018-10-06T08:04:32.864Z,10.40
2018-10-06T08:09:35.887Z,9.40
2018-10-06T08:14:38.938Z,10.20
2018-10-06T08:19:41.978Z,10.67
2018-10-06T08:24:45.032Z,9.33
2018-10-06T08:29:48.161Z,8.80
2018-10-06T08:34:51.206Z,9.40
2018-10-06T08:39:54.231Z,9.63
2018-10-06T08:44:57.306Z,8.87
2018-10-06T08:50:00.345Z,8.67
2018-10-06T08:55:03.403Z,8.73
2018-10-06T09:00:06.572Z,7.67
2018-10-06T09:05:09.632Z,8.40
2018-10-06T09:10:12.674Z,8.27
2018-10-06T09:15:15.706Z,7.87
2018-10-06T09:20:19.099Z,7.77
2018-10-06T09:25:22.173Z,7.87
2018-10-06T09:30:25.227Z,7.23
2018-10-06T09:35:28.259Z,7.77
2018-10-06T09:40:31.300Z,8.57
2018-10-06T09:45:34.347Z,6.60
2018-10-06T09:50:37.391Z,6.90
2018-10-06T09:55:40.550Z,6.67
2018-10-06T10:00:49.075Z,6.67
2018-10-06T10:05:54.171Z,6.33
2018-10-06T10:10:57.270Z,5.20
2018-10-06T10:16:00.323Z,6.20
2018-10-06T10:21:03.420Z,5.40
2018-10-06T10:26:06.687Z,6.17
2018-10-06T10:31:09.819Z,7.00
2018-10-06T10:36:13.018Z,5.47
2018-10-06T10:41:16.940Z,5.67
2018-10-06T10:46:20.372Z,5.63
2018-10-06T10:51:25.085Z,5.87
2018-10-06T10:56:29.061Z,4.87
2018-10-06T11:01:32.965Z,5.63
2018-10-06T11:06:36.039Z,5.23
2018-10-06T11:11:40.222Z,4.80
2018-10-06T11:16:44.035Z,4.73
2018-10-06T11:21:47.577Z,5.50
2018-10-06T11:26:50.656Z,4.73
2018-10-06T11:31:53.816Z,4.53
2018-10-06T11:36:57.030Z,4.73
2018-10-06T11:42:00.307Z,4.50
2018-10-06T11:47:03.492Z,4.20
2018-10-06T11:52:07.519Z,3.80
2018-10-06T11:57:10.699Z,3.90
2018-10-06T12:02:13.820Z,3.97
2018-10-06T12:07:16.939Z,3.50
2018-10-06T12:12:20.064Z,3.10
2018-10-06T12:17:23.240Z,3.43
2018-10-06T12:22:26.308Z,3.33
2018-10-06T12:27:29.381Z,3.20
2018-10-06T12:32:32.448Z,3.13
2018-10-06T12:37:35.495Z,3.13
2018-10-06T12:42:39.056Z,2.93
2018-10-06T12:47:42.369Z,3.00
2018-10-06T12:52:45.468Z,3.00
2018-10-06T12:57:48.549Z,3.27
2018-10-06T13:02:51.692Z,2.60
2018-10-06T13:07:54.863Z,3.27
2018-10-06T13:12:57.976Z,2.73
2018-10-06T13:18:02.387Z,2.80
2018-10-06T13:23:05.575Z,2.43
2018-10-06T13:28:08.693Z,2.53
2018-10-06T13:33:11.788Z,2.90
2018-10-06T13:38:14.895Z,2.80
2018-10-06T13:43:18.004Z,2.80
2018-10-06T13:48:21.178Z,2.83
2018-10-06T13:53:24.290Z,4.20
2018-10-06T13:58:27.367Z,2.63
2018-10-06T14:03:30.469Z,2.73
2018-10-06T14:08:33.556Z,2.70
2018-10-06T14:13:36.659Z,2.20
2018-10-06T14:18:39.767Z,3.77
2018-10-06T14:23:42.816Z,3.30
2018-10-06T14:28:45.871Z,2.87
2018-10-06T14:33:48.937Z,2.77
2018-10-06T14:38:52.011Z,2.70
2018-10-06T14:43:55.072Z,2.67
2018-10-06T14:48:58.167Z,5.70
2018-10-06T14:54:01.259Z,4.20
2018-10-06T14:59:04.503Z,3.30
2018-10-06T15:04:07.584Z,3.53
2018-10-06T15:09:11.280Z,3.60
2018-10-06T15:14:14.352Z,3.13
2018-10-06T15:19:17.423Z,3.37
2018-10-06T15:24:20.563Z,3.43
2018-10-06T15:29:23.645Z,3.70
2018-10-06T15:34:26.703Z,3.50
2018-10-06T15:39:29.777Z,3.53
2018-10-06T15:44:32.847Z,3.10
2018-10-06T15:49:35.911Z,3.63
2018-10-06T15:54:38.999Z,3.40
2018-10-06T15:59:42.133Z,4.13
2018-10-06T16:04:45.304Z,3.80
2018-10-06T16:09:48.404Z,3.73
2018-10-06T16:14:51.511Z,4.30
2018-10-06T16:19:54.563Z,4.40
2018-10-06T16:24:57.619Z,4.67
2018-10-06T16:30:00.703Z,4.43
2018-10-06T16:35:03.904Z,5.40
2018-10-06T16:40:07.048Z,4.30
2018-10-06T16:45:10.203Z,5.03
2018-10-06T16:50:13.299Z,4.60
2018-10-06T16:55:16.352Z,4.30
2018-10-06T17:00:19.521Z,3.53
2018-10-06T17:05:22.610Z,3.60
2018-10-06T17:10:25.655Z,4.60
2018-10-06T17:15:28.759Z,3.30
2018-10-06T17:20:31.826Z,3.17
2018-10-06T17:25:34.983Z,3.80
2018-10-06T17:30:38.066Z,3.80
2018-10-06T17:35:41.137Z,4.10
2018-10-06T17:40:44.233Z,10.03
2018-10-06T17:45:47.336Z,8.17
2018-10-06T17:50:50.599Z,5.17
2018-10-06T17:55:53.496Z,4.13
2018-10-06T18:00:56.684Z,4.00
2018-10-06T18:05:59.717Z,3.90
2018-10-06T18:11:02.817Z,3.80
2018-10-06T18:16:06.027Z,4.30
2018-10-06T18:21:11.686Z,3.83
2018-10-06T18:26:15.402Z,4.77
2018-10-06T18:31:18.652Z,5.43
2018-10-06T18:36:22.117Z,7.60
2018-10-06T18:41:25.151Z,5.40
2018-10-06T18:46:28.400Z,4.87
2018-10-06T18:51:31.544Z,4.83
2018-10-06T18:56:34.625Z,4.30
2018-10-06T19:01:37.675Z,4.27
2018-10-06T19:06:40.782Z,12.53
2018-10-06T19:11:43.910Z,4.67
2018-10-06T19:16:46.965Z,5.17
2018-10-06T19:21:50.134Z,4.70
2018-10-06T19:26:53.192Z,4.43
2018-10-06T19:31:56.255Z,5.43
2018-10-06T19:36:59.353Z,10.07
2018-10-06T19:42:02.432Z,9.60
2018-10-06T19:47:05.556Z,7.47
2018-10-06T19:52:08.607Z,7.40
2018-10-06T19:57:11.703Z,8.17
2018-10-06T20:02:14.752Z,7.20
2018-10-06T20:07:17.825Z,17.53
2018-10-06T20:12:20.993Z,9.97
2018-10-06T20:17:23.996Z,10.47
2018-10-06T20:22:27.036Z,8.53
2018-10-06T20:27:30.108Z,11.17
2018-10-06T20:32:33.183Z,7.60
2018-10-06T20:37:36.270Z,7.50
2018-10-06T20:42:39.425Z,7.63
2018-10-06T20:47:42.544Z,7.40
2018-10-06T20:52:45.595Z,7.60
2018-10-06T20:57:48.687Z,8.03
2018-10-06T21:02:51.740Z,8.00
2018-10-06T21:07:54.772Z,7.43
2018-10-06T21:12:57.853Z,7.20
2018-10-06T21:18:00.944Z,7.37
2018-10-06T21:23:03.992Z,7.37
2018-10-06T21:28:07.220Z,7.33
2018-10-06T21:33:10.278Z,6.60
2018-10-06T21:38:13.332Z,7.93
2018-10-06T21:43:16.378Z,6.77
2018-10-06T21:48:19.445Z,7.00
2018-10-06T21:53:22.572Z,7.37
2018-10-06T21:58:25.624Z,7.30
2018-10-06T22:03:28.844Z,8.37
2018-10-06T22:08:31.952Z,8.53
2018-10-06T22:13:35.056Z,9.37
2018-10-06T22:18:38.131Z,9.53
2018-10-06T22:23:41.231Z,10.20
2018-10-06T22:28:44.323Z,10.13
2018-10-06T22:33:47.375Z,10.40
2018-10-06T22:38:50.460Z,13.17
2018-10-06T22:43:53.528Z,14.80
2018-10-06T22:48:56.631Z,15.63
2018-10-06T23:05:26.201Z,19.17
2018-10-06T23:10:29.236Z,21.67
2018-10-06T23:15:32.279Z,21.40
2018-10-06T23:20:35.416Z,23.23
2018-10-06T23:25:38.462Z,23.80
2018-10-06T23:30:41.504Z,23.00
2018-10-06T23:35:44.531Z,23.50
2018-10-06T23:40:47.588Z,25.87
2018-10-06T23:45:50.646Z,27.40
2018-10-06T23:50:53.763Z,31.60
2018-10-06T23:55:56.904Z,30.63
